sensor_id;sensor_type;location;lat;lon;timestamp;temperature;humidity
38910;DHT22;24676;51.360;12.354;2023-06-26T00:00:13;19.10;99.90
38910;DHT22;24676;51.360;12.354;2023-06-26T00:02:57;19.10;99.90
38910;DHT22;24676;51.360;12.354;2023-06-26T00:05:42;19.00;99.90
38910;DHT22;24676;51.360;12.354;2023-06-26T00:08:27;19.00;99.90
38910;DHT22;24676;51.360;12.354;2023-06-26T00:11:12;18.90;99.90
38910;DHT22;24676;51.360;12.354;2023-06-26T00:13:56;18.90;99.90
38910;DHT22;24676;51.360;12.354;2023-06-26T00:16:40;18.80;99.90
38910;DHT22;24676;51.360;12.354;2023-06-26T00:19:26;18.80;99.90
38910;DHT22;24676;51.360;12.354;2023-06-26T00:22:11;18.70;99.90
38910;DHT22;24676;51.360;12.354;2023-06-26T00:24:55;18.70;99.90
38910;DHT22;24676;51.360;12.354;2023-06-26T00:27:40;18.70;99.90
38910;DHT22;24676;51.360;12.354;2023-06-26T00:30:24;18.60;99.90
38910;DHT22;24676;51.360;12.354;2023-06-26T00:33:09;18.60;99.90
38910;DHT22;24676;51.360;12.354;2023-06-26T00:35:53;18.50;99.90
38910;DHT22;24676;51.360;12.354;2023-06-26T00:38:37;18.50;99.90
38910;DHT22;24676;51.360;12.354;2023-06-26T00:41:21;18.40;99.90
38910;DHT22;24676;51.360;12.354;2023-06-26T00:44:05;18.40;99.90
38910;DHT22;24676;51.360;12.354;2023-06-26T00:46:50;18.40;99.90
38910;DHT22;24676;51.360;12.354;2023-06-26T00:49:34;18.30;99.90
38910;DHT22;24676;51.360;12.354;2023-06-26T00:52:19;18.30;99.90
38910;DHT22;24676;51.360;12.354;2023-06-26T00:55:04;18.30;99.90
38910;DHT22;24676;51.360;12.354;2023-06-26T00:57:49;18.30;99.90
38910;DHT22;24676;51.360;12.354;2023-06-26T01:00:33;18.20;99.90
38910;DHT22;24676;51.360;12.354;2023-06-26T01:03:18;18.30;99.90
38910;DHT22;24676;51.360;12.354;2023-06-26T01:06:03;18.30;99.90
38910;DHT22;24676;51.360;12.354;2023-06-26T01:08:48;18.30;99.90
38910;DHT22;24676;51.360;12.354;2023-06-26T01:11:32;18.30;99.90
38910;DHT22;24676;51.360;12.354;2023-06-26T01:14:16;18.20;99.90
38910;DHT22;24676;51.360;12.354;2023-06-26T01:17:01;18.20;99.90
38910;DHT22;24676;51.360;12.354;2023-06-26T01:19:46;18.10;99.90
38910;DHT22;24676;51.360;12.354;2023-06-26T01:26:14;18.10;99.90
38910;DHT22;24676;51.360;12.354;2023-06-26T01:29:00;18.00;99.90
38910;DHT22;24676;51.360;12.354;2023-06-26T01:31:46;17.90;99.90
38910;DHT22;24676;51.360;12.354;2023-06-26T01:34:33;17.90;99.90
38910;DHT22;24676;51.360;12.354;2023-06-26T01:37:17;18.00;99.90
38910;DHT22;24676;51.360;12.354;2023-06-26T01:40:01;18.00;99.90
38910;DHT22;24676;51.360;12.354;2023-06-26T01:42:45;18.00;99.90
38910;DHT22;24676;51.360;12.354;2023-06-26T01:45:32;18.00;99.90
38910;DHT22;24676;51.360;12.354;2023-06-26T01:48:17;17.90;99.90
38910;DHT22;24676;51.360;12.354;2023-06-26T01:51:06;17.90;99.90
38910;DHT22;24676;51.360;12.354;2023-06-26T01:53:53;17.80;99.90
38910;DHT22;24676;51.360;12.354;2023-06-26T01:56:40;17.80;99.90
38910;DHT22;24676;51.360;12.354;2023-06-26T01:59:25;17.70;99.90
38910;DHT22;24676;51.360;12.354;2023-06-26T02:02:12;17.70;99.90
38910;DHT22;24676;51.360;12.354;2023-06-26T02:04:56;17.70;99.90
38910;DHT22;24676;51.360;12.354;2023-06-26T02:07:41;17.70;99.90
38910;DHT22;24676;51.360;12.354;2023-06-26T02:10:26;17.70;99.90
38910;DHT22;24676;51.360;12.354;2023-06-26T02:13:10;17.70;99.90
38910;DHT22;24676;51.360;12.354;2023-06-26T02:15:54;17.70;99.90
38910;DHT22;24676;51.360;12.354;2023-06-26T02:18:38;17.70;99.90
38910;DHT22;24676;51.360;12.354;2023-06-26T02:21:22;17.60;99.90
38910;DHT22;24676;51.360;12.354;2023-06-26T02:24:06;17.60;99.90
38910;DHT22;24676;51.360;12.354;2023-06-26T02:26:51;17.50;99.90
38910;DHT22;24676;51.360;12.354;2023-06-26T02:29:35;17.60;99.90
38910;DHT22;24676;51.360;12.354;2023-06-26T02:32:20;17.60;99.90
38910;DHT22;24676;51.360;12.354;2023-06-26T02:35:05;17.50;99.90
38910;DHT22;24676;51.360;12.354;2023-06-26T02:37:49;17.50;99.90
38910;DHT22;24676;51.360;12.354;2023-06-26T02:40:34;17.40;99.90
38910;DHT22;24676;51.360;12.354;2023-06-26T02:43:19;17.40;99.90
38910;DHT22;24676;51.360;12.354;2023-06-26T02:46:03;17.40;99.90
38910;DHT22;24676;51.360;12.354;2023-06-26T02:48:47;17.30;99.90
38910;DHT22;24676;51.360;12.354;2023-06-26T02:51:35;17.20;99.90
38910;DHT22;24676;51.360;12.354;2023-06-26T02:54:19;17.20;99.90
38910;DHT22;24676;51.360;12.354;2023-06-26T02:57:04;17.20;99.90
38910;DHT22;24676;51.360;12.354;2023-06-26T02:59:48;17.20;99.90
38910;DHT22;24676;51.360;12.354;2023-06-26T03:02:33;17.20;99.90
38910;DHT22;24676;51.360;12.354;2023-06-26T03:05:17;17.20;99.90
38910;DHT22;24676;51.360;12.354;2023-06-26T03:08:02;17.10;99.90
38910;DHT22;24676;51.360;12.354;2023-06-26T03:10:46;17.10;99.90
38910;DHT22;24676;51.360;12.354;2023-06-26T03:13:35;17.10;99.90
38910;DHT22;24676;51.360;12.354;2023-06-26T03:16:19;17.10;99.90
38910;DHT22;24676;51.360;12.354;2023-06-26T03:19:04;17.20;99.90
38910;DHT22;24676;51.360;12.354;2023-06-26T03:21:57;17.20;99.90
38910;DHT22;24676;51.360;12.354;2023-06-26T03:24:54;17.40;99.90
38910;DHT22;24676;51.360;12.354;2023-06-26T03:27:39;17.50;99.90
38910;DHT22;24676;51.360;12.354;2023-06-26T03:30:23;17.50;99.90
38910;DHT22;24676;51.360;12.354;2023-06-26T03:33:07;17.60;99.90
38910;DHT22;24676;51.360;12.354;2023-06-26T03:35:52;17.60;99.90
38910;DHT22;24676;51.360;12.354;2023-06-26T03:38:36;17.70;99.90
38910;DHT22;24676;51.360;12.354;2023-06-26T03:41:20;17.70;99.90
38910;DHT22;24676;51.360;12.354;2023-06-26T03:44:05;17.80;99.90
38910;DHT22;24676;51.360;12.354;2023-06-26T03:46:49;17.90;99.90
38910;DHT22;24676;51.360;12.354;2023-06-26T03:49:46;18.10;99.90
38910;DHT22;24676;51.360;12.354;2023-06-26T03:52:42;18.20;99.90
38910;DHT22;24676;51.360;12.354;2023-06-26T03:55:27;18.30;99.90
38910;DHT22;24676;51.360;12.354;2023-06-26T03:58:11;18.50;99.90
38910;DHT22;24676;51.360;12.354;2023-06-26T04:00:55;18.60;99.90
38910;DHT22;24676;51.360;12.354;2023-06-26T04:03:39;18.80;99.90
38910;DHT22;24676;51.360;12.354;2023-06-26T04:06:24;18.90;99.90
38910;DHT22;24676;51.360;12.354;2023-06-26T04:09:08;19.10;99.90
38910;DHT22;24676;51.360;12.354;2023-06-26T04:11:52;19.20;99.90
38910;DHT22;24676;51.360;12.354;2023-06-26T04:14:37;19.40;99.90
38910;DHT22;24676;51.360;12.354;2023-06-26T04:17:21;19.50;99.90
38910;DHT22;24676;51.360;12.354;2023-06-26T04:20:06;20.00;99.90
38910;DHT22;24676;51.360;12.354;2023-06-26T04:22:50;20.80;99.90
38910;DHT22;24676;51.360;12.354;2023-06-26T04:25:34;21.80;99.90
38910;DHT22;24676;51.360;12.354;2023-06-26T04:28:21;22.90;99.90
38910;DHT22;24676;51.360;12.354;2023-06-26T04:31:05;23.60;99.90
38910;DHT22;24676;51.360;12.354;2023-06-26T04:33:49;24.40;94.90
38910;DHT22;24676;51.360;12.354;2023-06-26T04:36:35;24.90;88.60
38910;DHT22;24676;51.360;12.354;2023-06-26T04:39:23;25.20;84.00
38910;DHT22;24676;51.360;12.354;2023-06-26T04:42:07;26.00;77.30
38910;DHT22;24676;51.360;12.354;2023-06-26T04:44:52;26.50;72.10
38910;DHT22;24676;51.360;12.354;2023-06-26T04:47:36;27.50;66.90
38910;DHT22;24676;51.360;12.354;2023-06-26T04:50:20;28.50;60.10
38910;DHT22;24676;51.360;12.354;2023-06-26T04:53:04;29.20;56.70
38910;DHT22;24676;51.360;12.354;2023-06-26T04:55:52;30.10;54.00
38910;DHT22;24676;51.360;12.354;2023-06-26T04:58:36;30.80;51.50
38910;DHT22;24676;51.360;12.354;2023-06-26T05:01:20;31.70;49.20
38910;DHT22;24676;51.360;12.354;2023-06-26T05:04:06;32.70;46.70
38910;DHT22;24676;51.360;12.354;2023-06-26T05:06:50;33.40;43.70
38910;DHT22;24676;51.360;12.354;2023-06-26T05:09:34;33.30;43.80
38910;DHT22;24676;51.360;12.354;2023-06-26T05:12:18;34.40;42.20
38910;DHT22;24676;51.360;12.354;2023-06-26T05:15:03;34.90;40.40
38910;DHT22;24676;51.360;12.354;2023-06-26T05:17:47;35.00;39.20
38910;DHT22;24676;51.360;12.354;2023-06-26T05:20:31;34.70;39.80
38910;DHT22;24676;51.360;12.354;2023-06-26T05:23:16;34.90;39.30
38910;DHT22;24676;51.360;12.354;2023-06-26T05:26:02;35.20;38.80
38910;DHT22;24676;51.360;12.354;2023-06-26T05:28:46;36.00;37.20
38910;DHT22;24676;51.360;12.354;2023-06-26T05:31:33;36.50;36.30
38910;DHT22;24676;51.360;12.354;2023-06-26T05:34:22;37.00;35.40
38910;DHT22;24676;51.360;12.354;2023-06-26T05:37:08;37.70;33.90
38910;DHT22;24676;51.360;12.354;2023-06-26T05:39:52;37.20;34.40
38910;DHT22;24676;51.360;12.354;2023-06-26T05:42:37;37.70;34.00
38910;DHT22;24676;51.360;12.354;2023-06-26T05:45:21;38.50;33.20
38910;DHT22;24676;51.360;12.354;2023-06-26T05:48:05;38.80;31.40
38910;DHT22;24676;51.360;12.354;2023-06-26T05:50:50;37.80;32.30
38910;DHT22;24676;51.360;12.354;2023-06-26T05:53:35;37.80;33.30
38910;DHT22;24676;51.360;12.354;2023-06-26T05:56:19;38.50;31.70
38910;DHT22;24676;51.360;12.354;2023-06-26T05:59:03;38.70;31.60
38910;DHT22;24676;51.360;12.354;2023-06-26T06:01:48;38.90;31.10
38910;DHT22;24676;51.360;12.354;2023-06-26T06:04:32;38.50;31.70
38910;DHT22;24676;51.360;12.354;2023-06-26T06:07:16;39.20;31.10
38910;DHT22;24676;51.360;12.354;2023-06-26T06:10:02;39.90;31.00
38910;DHT22;24676;51.360;12.354;2023-06-26T06:12:46;40.10;30.00
38910;DHT22;24676;51.360;12.354;2023-06-26T06:15:31;40.80;29.70
38910;DHT22;24676;51.360;12.354;2023-06-26T06:18:15;40.60;29.40
38910;DHT22;24676;51.360;12.354;2023-06-26T06:20:59;40.70;30.00
38910;DHT22;24676;51.360;12.354;2023-06-26T06:23:43;40.90;29.10
38910;DHT22;24676;51.360;12.354;2023-06-26T06:26:27;41.20;28.70
38910;DHT22;24676;51.360;12.354;2023-06-26T06:29:12;41.60;28.30
38910;DHT22;24676;51.360;12.354;2023-06-26T06:31:56;41.60;28.70
38910;DHT22;24676;51.360;12.354;2023-06-26T06:34:40;42.50;27.70
38910;DHT22;24676;51.360;12.354;2023-06-26T06:37:24;43.00;27.50
38910;DHT22;24676;51.360;12.354;2023-06-26T06:40:10;43.60;27.20
38910;DHT22;24676;51.360;12.354;2023-06-26T06:42:55;43.60;26.40
38910;DHT22;24676;51.360;12.354;2023-06-26T06:45:39;43.40;26.90
38910;DHT22;24676;51.360;12.354;2023-06-26T06:48:23;43.60;27.20
38910;DHT22;24676;51.360;12.354;2023-06-26T06:51:07;43.00;27.50
38910;DHT22;24676;51.360;12.354;2023-06-26T06:53:52;43.00;27.60
38910;DHT22;24676;51.360;12.354;2023-06-26T06:56:36;43.20;26.80
38910;DHT22;24676;51.360;12.354;2023-06-26T06:59:20;43.80;26.80
38910;DHT22;24676;51.360;12.354;2023-06-26T07:02:05;44.30;26.50
38910;DHT22;24676;51.360;12.354;2023-06-26T07:04:50;44.90;26.10
38910;DHT22;24676;51.360;12.354;2023-06-26T07:07:35;45.40;25.40
38910;DHT22;24676;51.360;12.354;2023-06-26T07:10:19;45.70;24.70
38910;DHT22;24676;51.360;12.354;2023-06-26T07:13:03;45.30;25.40
38910;DHT22;24676;51.360;12.354;2023-06-26T07:15:47;44.70;25.70
38910;DHT22;24676;51.360;12.354;2023-06-26T07:18:32;44.60;25.90
38910;DHT22;24676;51.360;12.354;2023-06-26T07:21:16;43.90;26.20
38910;DHT22;24676;51.360;12.354;2023-06-26T07:24:01;44.00;26.30
38910;DHT22;24676;51.360;12.354;2023-06-26T07:26:45;44.80;26.40
38910;DHT22;24676;51.360;12.354;2023-06-26T07:29:29;45.30;25.70
38910;DHT22;24676;51.360;12.354;2023-06-26T07:32:14;44.80;26.30
38910;DHT22;24676;51.360;12.354;2023-06-26T07:34:58;44.50;26.50
38910;DHT22;24676;51.360;12.354;2023-06-26T07:37:42;44.10;27.00
38910;DHT22;24676;51.360;12.354;2023-06-26T07:40:26;43.70;27.50
38910;DHT22;24676;51.360;12.354;2023-06-26T07:43:11;44.30;26.10
38910;DHT22;24676;51.360;12.354;2023-06-26T07:45:55;44.20;26.40
38910;DHT22;24676;51.360;12.354;2023-06-26T07:48:42;44.80;26.00
38910;DHT22;24676;51.360;12.354;2023-06-26T07:51:26;44.30;26.80
38910;DHT22;24676;51.360;12.354;2023-06-26T07:54:11;44.80;26.30
38910;DHT22;24676;51.360;12.354;2023-06-26T07:56:55;44.50;26.50
38910;DHT22;24676;51.360;12.354;2023-06-26T07:59:40;44.60;26.50
38910;DHT22;24676;51.360;12.354;2023-06-26T08:02:24;44.50;26.10
38910;DHT22;24676;51.360;12.354;2023-06-26T08:05:08;45.00;25.40
38910;DHT22;24676;51.360;12.354;2023-06-26T08:07:52;45.30;25.70
38910;DHT22;24676;51.360;12.354;2023-06-26T08:10:36;45.30;26.00
38910;DHT22;24676;51.360;12.354;2023-06-26T08:13:20;44.70;26.70
38910;DHT22;24676;51.360;12.354;2023-06-26T08:16:04;44.70;26.70
38910;DHT22;24676;51.360;12.354;2023-06-26T08:18:48;45.00;25.70
38910;DHT22;24676;51.360;12.354;2023-06-26T08:21:33;43.90;26.70
38910;DHT22;24676;51.360;12.354;2023-06-26T08:24:17;43.80;26.00
38910;DHT22;24676;51.360;12.354;2023-06-26T08:27:03;42.70;27.60
38910;DHT22;24676;51.360;12.354;2023-06-26T08:29:47;41.70;27.60
38910;DHT22;24676;51.360;12.354;2023-06-26T08:32:32;40.20;29.20
38910;DHT22;24676;51.360;12.354;2023-06-26T08:35:16;38.90;31.60
38910;DHT22;24676;51.360;12.354;2023-06-26T08:38:00;38.00;31.50
38910;DHT22;24676;51.360;12.354;2023-06-26T08:40:44;37.10;34.60
38910;DHT22;24676;51.360;12.354;2023-06-26T08:43:28;36.40;36.20
38910;DHT22;24676;51.360;12.354;2023-06-26T08:46:14;36.00;36.20
38910;DHT22;24676;51.360;12.354;2023-06-26T08:49:08;35.70;36.10
38910;DHT22;24676;51.360;12.354;2023-06-26T08:51:59;35.70;36.50
38910;DHT22;24676;51.360;12.354;2023-06-26T08:54:46;35.60;36.40
38910;DHT22;24676;51.360;12.354;2023-06-26T08:57:33;35.40;38.00
38910;DHT22;24676;51.360;12.354;2023-06-26T09:00:17;35.40;37.50
38910;DHT22;24676;51.360;12.354;2023-06-26T09:03:03;35.50;36.30
38910;DHT22;24676;51.360;12.354;2023-06-26T09:05:48;35.40;36.20
38910;DHT22;24676;51.360;12.354;2023-06-26T09:08:32;35.30;37.30
38910;DHT22;24676;51.360;12.354;2023-06-26T09:11:17;35.10;37.40
38910;DHT22;24676;51.360;12.354;2023-06-26T09:14:01;35.60;37.60
38910;DHT22;24676;51.360;12.354;2023-06-26T09:16:49;35.70;37.40
38910;DHT22;24676;51.360;12.354;2023-06-26T09:19:37;35.60;37.30
38910;DHT22;24676;51.360;12.354;2023-06-26T09:22:21;35.80;36.60
38910;DHT22;24676;51.360;12.354;2023-06-26T09:25:07;35.90;34.80
38910;DHT22;24676;51.360;12.354;2023-06-26T09:27:52;36.00;35.80
38910;DHT22;24676;51.360;12.354;2023-06-26T09:30:37;36.10;35.50
38910;DHT22;24676;51.360;12.354;2023-06-26T09:33:21;36.00;35.30
38910;DHT22;24676;51.360;12.354;2023-06-26T09:36:19;35.90;35.70
38910;DHT22;24676;51.360;12.354;2023-06-26T09:39:07;35.70;35.60
38910;DHT22;24676;51.360;12.354;2023-06-26T09:41:54;35.40;37.80
38910;DHT22;24676;51.360;12.354;2023-06-26T09:44:50;35.30;36.50
38910;DHT22;24676;51.360;12.354;2023-06-26T09:47:35;35.30;36.80
38910;DHT22;24676;51.360;12.354;2023-06-26T09:50:22;35.40;38.20
38910;DHT22;24676;51.360;12.354;2023-06-26T09:53:11;35.30;36.40
38910;DHT22;24676;51.360;12.354;2023-06-26T09:55:59;35.40;36.80
38910;DHT22;24676;51.360;12.354;2023-06-26T09:58:49;35.30;38.90
38910;DHT22;24676;51.360;12.354;2023-06-26T10:01:39;35.50;37.30
38910;DHT22;24676;51.360;12.354;2023-06-26T10:04:24;35.10;35.80
38910;DHT22;24676;51.360;12.354;2023-06-26T10:07:11;35.00;37.00
38910;DHT22;24676;51.360;12.354;2023-06-26T10:09:56;35.20;36.20
38910;DHT22;24676;51.360;12.354;2023-06-26T10:12:42;35.10;35.90
38910;DHT22;24676;51.360;12.354;2023-06-26T10:15:28;35.40;33.80
38910;DHT22;24676;51.360;12.354;2023-06-26T10:18:14;35.40;34.40
38910;DHT22;24676;51.360;12.354;2023-06-26T10:21:01;35.60;35.40
38910;DHT22;24676;51.360;12.354;2023-06-26T10:23:48;36.10;35.50
38910;DHT22;24676;51.360;12.354;2023-06-26T10:26:36;36.90;33.90
38910;DHT22;24676;51.360;12.354;2023-06-26T10:29:23;37.20;32.00
38910;DHT22;24676;51.360;12.354;2023-06-26T10:32:11;37.30;32.80
38910;DHT22;24676;51.360;12.354;2023-06-26T10:34:57;37.80;30.60
38910;DHT22;24676;51.360;12.354;2023-06-26T10:37:49;38.10;30.50
38910;DHT22;24676;51.360;12.354;2023-06-26T10:40:45;38.40;30.70
38910;DHT22;24676;51.360;12.354;2023-06-26T10:43:30;38.50;29.80
38910;DHT22;24676;51.360;12.354;2023-06-26T10:46:15;37.90;31.00
38910;DHT22;24676;51.360;12.354;2023-06-26T10:49:00;37.50;31.50
38910;DHT22;24676;51.360;12.354;2023-06-26T10:51:49;37.00;32.90
38910;DHT22;24676;51.360;12.354;2023-06-26T10:54:33;36.70;32.80
38910;DHT22;24676;51.360;12.354;2023-06-26T10:57:23;36.30;32.30
38910;DHT22;24676;51.360;12.354;2023-06-26T11:00:10;35.60;34.00
38910;DHT22;24676;51.360;12.354;2023-06-26T11:02:55;35.00;34.90
38910;DHT22;24676;51.360;12.354;2023-06-26T11:05:39;35.00;36.10
38910;DHT22;24676;51.360;12.354;2023-06-26T11:08:44;35.10;34.20
38910;DHT22;24676;51.360;12.354;2023-06-26T11:14:35;36.10;32.60
38910;DHT22;24676;51.360;12.354;2023-06-26T11:17:19;36.10;32.10
38910;DHT22;24676;51.360;12.354;2023-06-26T11:20:08;35.80;32.40
38910;DHT22;24676;51.360;12.354;2023-06-26T11:22:54;35.30;31.80
38910;DHT22;24676;51.360;12.354;2023-06-26T11:25:39;35.40;32.60
38910;DHT22;24676;51.360;12.354;2023-06-26T11:28:23;35.40;33.60
38910;DHT22;24676;51.360;12.354;2023-06-26T11:31:08;35.70;31.80
38910;DHT22;24676;51.360;12.354;2023-06-26T11:34:12;36.00;31.60
38910;DHT22;24676;51.360;12.354;2023-06-26T11:36:57;36.10;33.30
38910;DHT22;24676;51.360;12.354;2023-06-26T11:39:41;36.20;33.80
38910;DHT22;24676;51.360;12.354;2023-06-26T11:42:25;36.10;31.50
38910;DHT22;24676;51.360;12.354;2023-06-26T11:45:10;36.10;32.10
38910;DHT22;24676;51.360;12.354;2023-06-26T11:47:55;35.50;32.70
38910;DHT22;24676;51.360;12.354;2023-06-26T11:50:40;35.20;32.80
38910;DHT22;24676;51.360;12.354;2023-06-26T11:53:24;35.00;33.20
38910;DHT22;24676;51.360;12.354;2023-06-26T11:56:16;34.90;33.80
38910;DHT22;24676;51.360;12.354;2023-06-26T12:01:45;35.20;34.30
38910;DHT22;24676;51.360;12.354;2023-06-26T12:04:29;35.10;34.70
38910;DHT22;24676;51.360;12.354;2023-06-26T12:07:14;34.50;34.40
38910;DHT22;24676;51.360;12.354;2023-06-26T12:09:59;34.30;35.10
38910;DHT22;24676;51.360;12.354;2023-06-26T12:12:43;34.00;35.00
38910;DHT22;24676;51.360;12.354;2023-06-26T12:15:28;33.60;36.00
38910;DHT22;24676;51.360;12.354;2023-06-26T12:18:12;33.80;36.60
38910;DHT22;24676;51.360;12.354;2023-06-26T12:20:56;34.10;36.00
38910;DHT22;24676;51.360;12.354;2023-06-26T12:23:41;34.10;35.20
38910;DHT22;24676;51.360;12.354;2023-06-26T12:26:26;33.90;36.90
38910;DHT22;24676;51.360;12.354;2023-06-26T12:29:17;34.10;37.00
38910;DHT22;24676;51.360;12.354;2023-06-26T12:32:02;34.60;35.60
38910;DHT22;24676;51.360;12.354;2023-06-26T12:34:49;34.60;34.20
38910;DHT22;24676;51.360;12.354;2023-06-26T12:37:37;34.30;35.80
38910;DHT22;24676;51.360;12.354;2023-06-26T12:40:25;34.50;35.70
38910;DHT22;24676;51.360;12.354;2023-06-26T12:43:11;34.90;33.80
38910;DHT22;24676;51.360;12.354;2023-06-26T12:45:55;35.30;32.20
38910;DHT22;24676;51.360;12.354;2023-06-26T12:48:41;35.40;33.30
38910;DHT22;24676;51.360;12.354;2023-06-26T12:51:27;35.40;33.00
38910;DHT22;24676;51.360;12.354;2023-06-26T12:54:12;35.30;32.40
38910;DHT22;24676;51.360;12.354;2023-06-26T12:56:56;34.90;32.20
38910;DHT22;24676;51.360;12.354;2023-06-26T12:59:40;34.40;33.00
38910;DHT22;24676;51.360;12.354;2023-06-26T13:02:24;34.20;35.50
38910;DHT22;24676;51.360;12.354;2023-06-26T13:05:09;34.10;34.30
38910;DHT22;24676;51.360;12.354;2023-06-26T13:07:53;34.20;34.00
38910;DHT22;24676;51.360;12.354;2023-06-26T13:10:39;34.30;35.20
38910;DHT22;24676;51.360;12.354;2023-06-26T13:13:24;34.20;33.70
38910;DHT22;24676;51.360;12.354;2023-06-26T13:16:08;34.00;33.60
38910;DHT22;24676;51.360;12.354;2023-06-26T13:18:52;33.90;34.00
38910;DHT22;24676;51.360;12.354;2023-06-26T13:21:36;33.80;34.40
38910;DHT22;24676;51.360;12.354;2023-06-26T13:24:20;33.60;34.10
38910;DHT22;24676;51.360;12.354;2023-06-26T13:27:04;33.70;35.40
38910;DHT22;24676;51.360;12.354;2023-06-26T13:29:49;33.90;34.80
38910;DHT22;24676;51.360;12.354;2023-06-26T13:32:33;34.20;36.00
38910;DHT22;24676;51.360;12.354;2023-06-26T13:35:17;34.30;34.00
38910;DHT22;24676;51.360;12.354;2023-06-26T13:38:02;34.50;35.30
38910;DHT22;24676;51.360;12.354;2023-06-26T13:40:46;34.50;34.80
38910;DHT22;24676;51.360;12.354;2023-06-26T13:43:30;34.60;34.90
38910;DHT22;24676;51.360;12.354;2023-06-26T13:46:15;34.60;34.70
38910;DHT22;24676;51.360;12.354;2023-06-26T13:48:59;34.50;34.00
38910;DHT22;24676;51.360;12.354;2023-06-26T13:51:44;34.20;34.70
38910;DHT22;24676;51.360;12.354;2023-06-26T13:54:30;34.10;34.80
38910;DHT22;24676;51.360;12.354;2023-06-26T13:57:15;33.90;35.10
38910;DHT22;24676;51.360;12.354;2023-06-26T13:59:59;33.80;34.40
38910;DHT22;24676;51.360;12.354;2023-06-26T14:02:43;33.60;35.50
38910;DHT22;24676;51.360;12.354;2023-06-26T14:05:27;33.20;35.60
38910;DHT22;24676;51.360;12.354;2023-06-26T14:08:12;32.20;42.30
38910;DHT22;24676;51.360;12.354;2023-06-26T14:10:56;31.10;51.20
38910;DHT22;24676;51.360;12.354;2023-06-26T14:13:41;29.30;61.90
38910;DHT22;24676;51.360;12.354;2023-06-26T14:16:25;26.80;92.00
38910;DHT22;24676;51.360;12.354;2023-06-26T14:19:13;25.40;99.90
38910;DHT22;24676;51.360;12.354;2023-06-26T14:21:59;24.50;99.90
38910;DHT22;24676;51.360;12.354;2023-06-26T14:24:43;24.00;99.90
38910;DHT22;24676;51.360;12.354;2023-06-26T14:27:27;23.90;99.90
38910;DHT22;24676;51.360;12.354;2023-06-26T14:30:11;24.00;99.90
38910;DHT22;24676;51.360;12.354;2023-06-26T14:32:56;24.20;99.90
38910;DHT22;24676;51.360;12.354;2023-06-26T14:35:40;24.30;99.90
38910;DHT22;24676;51.360;12.354;2023-06-26T14:38:24;24.30;99.90
38910;DHT22;24676;51.360;12.354;2023-06-26T14:41:08;24.40;99.90
38910;DHT22;24676;51.360;12.354;2023-06-26T14:43:52;24.70;99.90
38910;DHT22;24676;51.360;12.354;2023-06-26T14:46:37;25.10;99.90
38910;DHT22;24676;51.360;12.354;2023-06-26T14:49:21;25.50;99.90
38910;DHT22;24676;51.360;12.354;2023-06-26T14:52:06;25.90;99.90
38910;DHT22;24676;51.360;12.354;2023-06-26T14:54:50;26.10;99.90
38910;DHT22;24676;51.360;12.354;2023-06-26T14:57:34;26.10;99.90
38910;DHT22;24676;51.360;12.354;2023-06-26T15:00:19;26.10;99.90
38910;DHT22;24676;51.360;12.354;2023-06-26T15:03:03;26.20;99.90
38910;DHT22;24676;51.360;12.354;2023-06-26T15:05:47;26.10;99.90
38910;DHT22;24676;51.360;12.354;2023-06-26T15:08:31;26.10;99.90
38910;DHT22;24676;51.360;12.354;2023-06-26T15:11:17;26.20;99.90
38910;DHT22;24676;51.360;12.354;2023-06-26T15:14:02;26.30;99.90
38910;DHT22;24676;51.360;12.354;2023-06-26T15:16:46;26.30;99.90
38910;DHT22;24676;51.360;12.354;2023-06-26T15:19:30;26.30;99.90
38910;DHT22;24676;51.360;12.354;2023-06-26T15:22:17;26.30;99.90
38910;DHT22;24676;51.360;12.354;2023-06-26T15:25:01;26.30;99.90
38910;DHT22;24676;51.360;12.354;2023-06-26T15:27:46;26.10;99.90
38910;DHT22;24676;51.360;12.354;2023-06-26T15:30:31;26.00;99.90
38910;DHT22;24676;51.360;12.354;2023-06-26T15:33:15;26.00;99.90
38910;DHT22;24676;51.360;12.354;2023-06-26T15:36:00;26.00;99.90
38910;DHT22;24676;51.360;12.354;2023-06-26T15:38:48;26.10;99.90
38910;DHT22;24676;51.360;12.354;2023-06-26T15:41:32;26.00;99.90
38910;DHT22;24676;51.360;12.354;2023-06-26T15:44:18;25.90;99.90
38910;DHT22;24676;51.360;12.354;2023-06-26T15:47:02;25.90;99.90
38910;DHT22;24676;51.360;12.354;2023-06-26T15:49:46;25.80;99.90
38910;DHT22;24676;51.360;12.354;2023-06-26T15:52:31;25.60;99.90
38910;DHT22;24676;51.360;12.354;2023-06-26T15:55:15;25.50;99.90
38910;DHT22;24676;51.360;12.354;2023-06-26T15:58:00;25.50;99.90
38910;DHT22;24676;51.360;12.354;2023-06-26T16:00:44;25.40;99.90
38910;DHT22;24676;51.360;12.354;2023-06-26T16:03:28;25.40;99.90
38910;DHT22;24676;51.360;12.354;2023-06-26T16:06:13;25.40;99.90
38910;DHT22;24676;51.360;12.354;2023-06-26T16:08:58;25.50;99.90
38910;DHT22;24676;51.360;12.354;2023-06-26T16:11:42;25.50;99.90
38910;DHT22;24676;51.360;12.354;2023-06-26T16:14:26;25.40;99.90
38910;DHT22;24676;51.360;12.354;2023-06-26T16:17:10;25.20;99.90
38910;DHT22;24676;51.360;12.354;2023-06-26T16:19:55;25.00;99.90
38910;DHT22;24676;51.360;12.354;2023-06-26T16:22:39;25.00;99.90
38910;DHT22;24676;51.360;12.354;2023-06-26T16:25:23;24.80;99.90
38910;DHT22;24676;51.360;12.354;2023-06-26T16:28:08;24.70;99.90
38910;DHT22;24676;51.360;12.354;2023-06-26T16:30:52;24.60;99.90
38910;DHT22;24676;51.360;12.354;2023-06-26T16:33:36;24.50;99.90
38910;DHT22;24676;51.360;12.354;2023-06-26T16:36:20;24.50;99.90
38910;DHT22;24676;51.360;12.354;2023-06-26T16:39:05;24.50;99.90
38910;DHT22;24676;51.360;12.354;2023-06-26T16:41:49;24.60;99.90
38910;DHT22;24676;51.360;12.354;2023-06-26T16:44:38;24.70;99.90
38910;DHT22;24676;51.360;12.354;2023-06-26T16:47:22;24.70;99.90
38910;DHT22;24676;51.360;12.354;2023-06-26T16:50:07;24.80;99.90
38910;DHT22;24676;51.360;12.354;2023-06-26T16:52:51;24.80;99.90
38910;DHT22;24676;51.360;12.354;2023-06-26T16:55:35;24.80;99.90
38910;DHT22;24676;51.360;12.354;2023-06-26T16:58:19;24.90;99.90
38910;DHT22;24676;51.360;12.354;2023-06-26T17:01:06;24.80;99.90
38910;DHT22;24676;51.360;12.354;2023-06-26T17:03:49;24.80;99.90
38910;DHT22;24676;51.360;12.354;2023-06-26T17:06:35;24.80;99.90
38910;DHT22;24676;51.360;12.354;2023-06-26T17:09:19;24.70;99.90
38910;DHT22;24676;51.360;12.354;2023-06-26T17:12:04;24.80;99.90
38910;DHT22;24676;51.360;12.354;2023-06-26T17:14:49;24.80;99.90